createdAt,value
2023-03-19T00:02:17.445Z,5.28
2023-03-19T00:04:47.810Z,5.10
2023-03-19T00:07:16.843Z,4.37
2023-03-19T00:09:45.056Z,4.40
2023-03-19T00:12:13.444Z,3.75
2023-03-19T00:14:42.049Z,3.97
2023-03-19T00:17:09.691Z,3.60
2023-03-19T00:19:38.064Z,3.47
2023-03-19T00:22:07.373Z,3.70
2023-03-19T00:24:35.973Z,3.50
2023-03-19T00:27:04.805Z,4.00
2023-03-19T00:29:32.893Z,5.60
2023-03-19T00:32:01.427Z,4.87
2023-03-19T00:34:29.320Z,4.55
2023-03-19T00:36:57.808Z,4.30
2023-03-19T00:39:27.235Z,4.30
2023-03-19T00:41:55.218Z,4.43
2023-03-19T00:44:23.092Z,4.10
2023-03-19T00:46:51.851Z,7.22
2023-03-19T00:49:19.751Z,5.97
2023-03-19T00:51:47.952Z,5.40
2023-03-19T00:54:15.918Z,5.15
2023-03-19T00:56:45.143Z,5.80
2023-03-19T00:59:12.895Z,6.32
2023-03-19T01:01:40.868Z,6.63
2023-03-19T01:04:08.820Z,6.97
2023-03-19T01:06:36.874Z,6.45
2023-03-19T01:09:04.832Z,6.10
2023-03-19T01:11:32.854Z,6.25
2023-03-19T01:14:02.758Z,5.53
2023-03-19T01:16:30.884Z,6.07
2023-03-19T01:18:59.068Z,6.13
2023-03-19T01:21:27.890Z,6.33
2023-03-19T01:23:55.945Z,6.28
2023-03-19T01:26:24.100Z,5.93
2023-03-19T01:28:52.620Z,5.75
2023-03-19T01:31:22.148Z,6.45
2023-03-19T01:33:50.050Z,6.30
2023-03-19T01:36:17.870Z,6.20
2023-03-19T01:38:45.863Z,5.85
2023-03-19T01:41:13.788Z,5.25
2023-03-19T01:43:41.942Z,4.90
2023-03-19T01:46:16.602Z,4.47
2023-03-19T01:48:48.030Z,4.50
2023-03-19T01:51:18.984Z,4.90
2023-03-19T01:53:51.283Z,4.53
2023-03-19T01:56:21.868Z,3.90
2023-03-19T01:58:52.310Z,4.57
2023-03-19T02:01:20.929Z,4.33
2023-03-19T02:03:51.356Z,4.30
2023-03-19T02:06:21.155Z,5.00
2023-03-19T02:08:49.855Z,4.05
2023-03-19T02:11:18.300Z,4.10
2023-03-19T02:13:47.142Z,4.00
2023-03-19T02:16:16.021Z,3.42
2023-03-19T02:18:44.690Z,3.80
2023-03-19T02:21:17.546Z,3.55
2023-03-19T02:23:53.739Z,4.03
2023-03-19T02:26:25.288Z,4.50
2023-03-19T02:28:54.984Z,4.30
2023-03-19T02:31:23.330Z,3.90
2023-03-19T02:34:00.387Z,4.47
2023-03-19T02:36:33.352Z,4.50
2023-03-19T02:39:04.209Z,3.90
2023-03-19T02:41:35.322Z,4.40
2023-03-19T02:44:04.762Z,4.05
2023-03-19T02:46:33.175Z,4.00
2023-03-19T02:49:01.268Z,3.72
2023-03-19T02:51:28.929Z,3.37
2023-03-19T02:53:56.874Z,3.85
2023-03-19T02:56:24.791Z,4.03
2023-03-19T02:58:54.192Z,3.92
2023-03-19T03:01:22.545Z,4.38
2023-03-19T03:03:50.474Z,4.73
2023-03-19T03:06:18.468Z,4.28
2023-03-19T03:08:46.380Z,4.07
2023-03-19T03:11:14.182Z,4.45
2023-03-19T03:13:42.122Z,3.97
2023-03-19T03:16:11.357Z,4.03
2023-03-19T03:18:39.258Z,4.18
2023-03-19T03:21:07.925Z,3.92
2023-03-19T03:23:36.706Z,4.65
2023-03-19T03:26:06.975Z,4.40
2023-03-19T03:28:34.952Z,3.67
2023-03-19T03:31:02.838Z,4.28
2023-03-19T03:33:32.919Z,4.07
2023-03-19T03:36:01.465Z,4.30
2023-03-19T03:38:29.397Z,3.92
2023-03-19T03:40:57.282Z,3.83
2023-03-19T03:43:25.640Z,5.05
2023-03-19T03:45:53.574Z,3.90
2023-03-19T03:48:22.075Z,4.00
2023-03-19T03:50:52.192Z,3.50
2023-03-19T03:53:20.196Z,3.00
2023-03-19T03:55:48.099Z,3.97
2023-03-19T03:58:15.917Z,5.03
2023-03-19T04:00:43.791Z,4.72
2023-03-19T04:03:12.075Z,4.72
2023-03-19T04:05:40.832Z,6.37
2023-03-19T04:08:10.404Z,7.90
2023-03-19T04:10:40.930Z,7.97
2023-03-19T04:13:08.744Z,7.10
2023-03-19T04:15:36.687Z,5.85
2023-03-19T04:18:05.575Z,5.60
2023-03-19T04:20:33.712Z,5.75
2023-03-19T04:23:02.307Z,6.57
2023-03-19T04:25:31.501Z,6.05
2023-03-19T04:27:59.847Z,5.63
2023-03-19T04:30:28.218Z,5.17
2023-03-19T04:32:56.759Z,5.72
2023-03-19T04:35:25.099Z,6.03
2023-03-19T04:37:53.599Z,5.28
2023-03-19T04:40:22.125Z,4.82
2023-03-19T04:42:51.568Z,5.07
2023-03-19T04:45:19.633Z,5.25
2023-03-19T04:47:47.762Z,5.15
2023-03-19T04:50:15.617Z,4.82
2023-03-19T04:52:43.548Z,4.90
2023-03-19T04:55:12.043Z,4.00
2023-03-19T04:57:40.114Z,3.70
2023-03-19T05:00:11.108Z,4.30
2023-03-19T05:02:39.050Z,3.60
2023-03-19T05:05:07.231Z,4.10
2023-03-19T05:07:35.099Z,4.20
2023-03-19T05:10:02.919Z,4.13
2023-03-19T05:12:30.798Z,4.18
2023-03-19T05:14:58.957Z,3.25
2023-03-19T05:17:29.329Z,3.60
2023-03-19T05:19:57.361Z,4.03
2023-03-19T05:22:26.392Z,3.60
2023-03-19T05:24:54.611Z,4.13
2023-03-19T05:27:22.512Z,3.85
2023-03-19T05:29:50.620Z,3.75
2023-03-19T05:32:19.041Z,3.97
2023-03-19T05:34:48.427Z,4.07
2023-03-19T05:37:17.271Z,3.78
2023-03-19T05:39:45.239Z,3.60
2023-03-19T05:42:14.939Z,4.35
2023-03-19T05:44:43.090Z,5.33
2023-03-19T05:47:12.490Z,5.40
2023-03-19T05:49:40.242Z,7.72
2023-03-19T05:52:09.948Z,8.80
2023-03-19T05:54:37.818Z,7.20
2023-03-19T05:57:05.931Z,7.07
2023-03-19T05:59:34.110Z,7.28
2023-03-19T06:02:02.312Z,6.60
2023-03-19T06:04:30.239Z,5.25
2023-03-19T06:06:58.183Z,5.47
2023-03-19T06:09:27.718Z,7.27
2023-03-19T06:11:55.889Z,9.90
2023-03-19T06:14:25.242Z,9.93
2023-03-19T06:16:53.112Z,9.68
2023-03-19T06:19:21.356Z,7.82
2023-03-19T06:21:49.178Z,6.53
2023-03-19T06:24:17.061Z,5.95
2023-03-19T06:26:46.762Z,6.00
2023-03-19T06:29:14.937Z,5.55
2023-03-19T06:31:43.127Z,5.50
2023-03-19T06:34:11.461Z,4.90
2023-03-19T06:36:40.427Z,4.78
2023-03-19T06:39:09.478Z,4.60
2023-03-19T06:41:37.742Z,5.38
2023-03-19T06:44:06.905Z,5.18
2023-03-19T06:46:35.783Z,4.87
2023-03-19T06:49:04.076Z,6.45
2023-03-19T06:51:31.917Z,5.60
2023-03-19T06:54:00.129Z,6.18
2023-03-19T06:56:27.982Z,5.60
2023-03-19T06:58:55.957Z,5.20
2023-03-19T07:01:25.358Z,5.47
2023-03-19T07:03:53.550Z,5.28
2023-03-19T07:06:21.679Z,7.00
2023-03-19T07:08:49.977Z,5.68
2023-03-19T07:11:18.181Z,5.40
2023-03-19T07:13:46.762Z,4.97
2023-03-19T07:16:14.379Z,5.75
2023-03-19T07:18:43.730Z,6.40
2023-03-19T07:21:11.574Z,7.38
2023-03-19T07:23:39.360Z,7.70
2023-03-19T07:26:07.078Z,6.47
2023-03-19T07:28:34.816Z,7.90
2023-03-19T07:31:02.416Z,7.30
2023-03-19T07:33:30.163Z,7.63
2023-03-19T07:35:59.155Z,8.30
2023-03-19T07:38:27.127Z,9.00
2023-03-19T07:41:01.970Z,9.43
2023-03-19T07:43:30.397Z,7.57
2023-03-19T07:45:58.242Z,7.93
2023-03-19T07:48:26.305Z,6.23
2023-03-19T07:50:54.514Z,6.80
2023-03-19T07:53:23.571Z,6.90
2023-03-19T07:55:54.030Z,6.20
2023-03-19T07:58:22.146Z,7.55
2023-03-19T08:00:49.935Z,7.50
2023-03-19T08:03:17.551Z,7.97
2023-03-19T08:05:49.106Z,7.47
2023-03-19T08:08:17.310Z,8.25
2023-03-19T08:10:47.517Z,8.73
2023-03-19T08:13:15.121Z,8.33
2023-03-19T08:15:42.890Z,7.43
2023-03-19T08:18:10.470Z,8.90
2023-03-19T08:20:38.140Z,7.80
2023-03-19T08:23:06.557Z,7.75
2023-03-19T08:25:34.834Z,7.73
2023-03-19T08:28:03.782Z,8.20
2023-03-19T08:30:32.276Z,7.57
2023-03-19T08:33:00.262Z,7.78
2023-03-19T08:35:28.431Z,8.95
2023-03-19T08:37:56.827Z,7.67
2023-03-19T08:40:24.879Z,7.45
2023-03-19T08:42:52.650Z,7.43
2023-03-19T08:45:21.934Z,9.27
2023-03-19T08:47:50.249Z,11.90
2023-03-19T08:50:20.954Z,10.93
2023-03-19T08:52:48.862Z,10.27
2023-03-19T08:55:20.862Z,8.50
2023-03-19T08:57:48.476Z,7.55
2023-03-19T09:00:17.656Z,6.93
2023-03-19T09:02:46.919Z,7.40
2023-03-19T09:05:24.245Z,8.50
2023-03-19T09:07:52.287Z,8.90
2023-03-19T09:10:20.274Z,9.40
2023-03-19T09:12:48.629Z,10.30
2023-03-19T09:15:16.973Z,11.97
2023-03-19T09:17:46.306Z,10.70
2023-03-19T09:20:14.210Z,10.13
2023-03-19T09:22:42.166Z,10.55
2023-03-19T09:25:11.301Z,11.95
2023-03-19T09:27:38.958Z,11.50
2023-03-19T09:30:09.941Z,10.30
2023-03-19T09:32:38.359Z,9.07
2023-03-19T09:35:09.516Z,8.80
2023-03-19T09:37:37.606Z,6.80
2023-03-19T09:40:06.516Z,4.30
2023-03-19T09:42:52.830Z,3.33
2023-03-19T09:45:22.103Z,2.47
2023-03-19T09:47:53.484Z,2.28
2023-03-19T09:50:25.176Z,2.20
2023-03-19T09:52:59.947Z,2.23
2023-03-19T09:55:36.937Z,2.20
2023-03-19T09:58:15.692Z,2.08
2023-03-19T10:00:45.251Z,3.20
2023-03-19T10:03:30.807Z,2.65
2023-03-19T10:06:13.443Z,3.07
2023-03-19T10:08:55.109Z,6.95
2023-03-19T10:11:38.600Z,3.30
2023-03-19T10:14:21.392Z,5.07
2023-03-19T10:16:53.056Z,13.15
2023-03-19T10:19:25.758Z,6.67
2023-03-19T10:21:59.787Z,7.20
2023-03-19T10:24:32.167Z,3.72
2023-03-19T10:27:03.051Z,3.95
2023-03-19T10:29:30.638Z,3.55
2023-03-19T10:32:09.851Z,5.30
2023-03-19T10:34:39.815Z,4.40
2023-03-19T10:37:16.632Z,4.18
2023-03-19T10:39:46.205Z,4.50
2023-03-19T10:42:40.426Z,4.55
2023-03-19T10:45:22.200Z,7.03
2023-03-19T10:47:50.012Z,7.53
2023-03-19T10:50:19.094Z,6.43
2023-03-19T10:52:52.722Z,7.35
2023-03-19T10:55:25.942Z,6.10
2023-03-19T10:58:03.259Z,7.07
2023-03-19T11:00:33.453Z,3.97
2023-03-19T11:03:04.827Z,3.50
2023-03-19T11:05:34.249Z,5.70
2023-03-19T11:08:05.691Z,5.20
2023-03-19T11:10:36.004Z,4.60
2023-03-19T11:13:06.835Z,4.97
2023-03-19T11:15:37.688Z,3.40
2023-03-19T11:18:17.499Z,4.07
2023-03-19T11:20:50.508Z,3.65
2023-03-19T11:23:21.431Z,3.67
2023-03-19T11:25:52.386Z,5.50
2023-03-19T11:28:25.994Z,5.47
2023-03-19T11:31:01.861Z,5.72
2023-03-19T11:33:44.505Z,5.15
2023-03-19T11:36:16.991Z,5.57
2023-03-19T11:39:16.554Z,6.70
2023-03-19T11:41:59.010Z,4.90
2023-03-19T11:44:35.165Z,4.38
2023-03-19T11:47:17.929Z,5.30
2023-03-19T11:50:18.377Z,3.50
2023-03-19T11:52:58.397Z,4.13
2023-03-19T11:55:36.512Z,3.45
2023-03-19T11:58:18.893Z,4.00
2023-03-19T12:00:50.704Z,8.10
2023-03-19T12:03:42.970Z,4.07
2023-03-19T12:06:20.768Z,3.92
2023-03-19T12:08:57.351Z,5.13
2023-03-19T12:11:35.758Z,3.83
2023-03-19T12:14:25.465Z,3.80
2023-03-19T12:17:07.658Z,2.20
2023-03-19T12:19:52.073Z,2.40
2023-03-19T12:22:31.033Z,2.50
2023-03-19T12:25:11.289Z,1.60
2023-03-19T12:27:48.881Z,2.35
2023-03-19T12:30:33.463Z,1.90
2023-03-19T12:33:18.304Z,2.20
2023-03-19T12:35:51.784Z,2.10
2023-03-19T12:38:25.322Z,1.90
2023-03-19T12:40:57.120Z,2.53
2023-03-19T12:43:31.556Z,2.70
2023-03-19T12:46:03.739Z,2.70
2023-03-19T12:48:35.077Z,2.97
2023-03-19T12:51:07.909Z,3.80
2023-03-19T12:53:46.906Z,3.40
2023-03-19T12:56:18.938Z,1.70
2023-03-19T12:58:56.918Z,1.80
2023-03-19T13:01:30.836Z,1.52
2023-03-19T13:04:03.669Z,1.85
2023-03-19T13:06:37.067Z,1.70
2023-03-19T13:09:11.148Z,1.33
2023-03-19T13:11:49.494Z,1.50
2023-03-19T13:14:25.786Z,1.30
2023-03-19T13:16:59.040Z,1.60
2023-03-19T13:19:33.646Z,1.20
2023-03-19T13:22:05.902Z,1.50
2023-03-19T13:24:38.566Z,1.65
2023-03-19T13:27:09.676Z,1.60
2023-03-19T13:29:39.500Z,1.50
2023-03-19T13:32:11.535Z,1.50
2023-03-19T13:34:40.020Z,1.30
2023-03-19T13:37:14.835Z,1.33
2023-03-19T13:39:44.142Z,1.42
2023-03-19T13:42:35.888Z,1.48
2023-03-19T13:45:26.759Z,2.80
2023-03-19T13:47:54.899Z,1.80
2023-03-19T13:50:29.233Z,1.80
2023-03-19T13:53:21.479Z,1.88
2023-03-19T13:55:55.434Z,1.50
2023-03-19T13:58:43.221Z,1.90
2023-03-19T14:01:34.030Z,1.73
2023-03-19T14:04:04.035Z,1.38
2023-03-19T14:06:36.325Z,2.17
2023-03-19T14:09:04.625Z,1.80
2023-03-19T14:11:34.429Z,3.35
2023-03-19T14:14:05.753Z,2.33
2023-03-19T14:16:37.823Z,2.47
2023-03-19T14:19:13.261Z,1.70
2023-03-19T14:21:46.862Z,2.28
2023-03-19T14:27:30.647Z,1.63
2023-03-19T14:30:01.054Z,1.60
2023-03-19T14:32:41.901Z,1.90
2023-03-19T14:35:16.549Z,1.92
2023-03-19T14:37:49.107Z,1.85
2023-03-19T14:40:20.719Z,1.67
2023-03-19T14:42:59.359Z,1.40
2023-03-19T14:45:42.747Z,2.03
2023-03-19T14:48:22.757Z,2.17
2023-03-19T14:51:36.982Z,2.08
2023-03-19T14:54:12.963Z,2.13
2023-03-19T14:56:42.105Z,1.85
2023-03-19T14:59:15.045Z,1.85
2023-03-19T15:01:49.874Z,3.10
2023-03-19T15:04:22.982Z,3.58
2023-03-19T15:06:54.707Z,4.83
2023-03-19T15:09:29.813Z,2.38
2023-03-19T15:12:31.258Z,1.67
2023-03-19T15:15:19.398Z,1.65
2023-03-19T15:17:57.582Z,1.90
2023-03-19T15:20:38.750Z,1.80
2023-03-19T15:23:23.362Z,1.52
2023-03-19T15:25:57.057Z,1.45
2023-03-19T15:28:26.012Z,1.20
2023-03-19T15:31:05.803Z,1.40
2023-03-19T15:33:46.320Z,1.90
2023-03-19T15:36:22.182Z,1.77
2023-03-19T15:38:53.964Z,2.97
2023-03-19T15:41:25.735Z,2.40
2023-03-19T15:43:54.433Z,2.05
2023-03-19T15:46:26.502Z,1.97
2023-03-19T15:49:00.181Z,1.70
2023-03-19T15:51:31.074Z,1.92
2023-03-19T15:54:00.748Z,5.05
2023-03-19T15:56:28.859Z,3.25
2023-03-19T15:58:58.788Z,3.30
2023-03-19T16:01:28.335Z,3.45
2023-03-19T16:03:59.336Z,2.60
2023-03-19T16:06:31.859Z,2.75
2023-03-19T16:09:16.569Z,3.28
2023-03-19T16:11:46.230Z,2.80
2023-03-19T16:14:28.160Z,3.13
2023-03-19T16:17:02.178Z,2.80
2023-03-19T16:19:36.225Z,2.90
2023-03-19T16:22:14.374Z,2.20
2023-03-19T16:24:43.787Z,1.80
2023-03-19T16:27:14.457Z,2.25
2023-03-19T16:29:44.116Z,2.58
2023-03-19T16:32:21.275Z,2.85
2023-03-19T16:34:52.652Z,2.85
2023-03-19T16:37:39.661Z,3.67
2023-03-19T16:40:42.668Z,3.47
2023-03-19T16:43:17.442Z,4.53
2023-03-19T16:45:47.203Z,4.82
2023-03-19T16:48:15.193Z,4.85
2023-03-19T16:50:44.166Z,4.47
2023-03-19T16:53:22.642Z,3.60
2023-03-19T16:55:50.581Z,4.05
2023-03-19T16:58:20.649Z,4.13
2023-03-19T17:00:49.417Z,3.85
2023-03-19T17:03:19.868Z,4.13
2023-03-19T17:05:49.371Z,3.70
2023-03-19T17:08:20.593Z,3.88
2023-03-19T17:10:51.866Z,3.70
2023-03-19T17:13:22.279Z,4.45
2023-03-19T17:15:52.119Z,5.20
2023-03-19T17:18:23.100Z,3.83
2023-03-19T17:20:56.244Z,4.28
2023-03-19T17:23:27.070Z,4.25
2023-03-19T17:25:55.777Z,4.30
2023-03-19T17:28:24.694Z,5.77
2023-03-19T17:30:52.962Z,5.13
2023-03-19T17:33:24.714Z,3.20
2023-03-19T17:35:54.073Z,2.60
2023-03-19T17:38:23.608Z,3.08
2023-03-19T17:40:52.759Z,3.90
2023-03-19T17:43:20.633Z,4.50
2023-03-19T17:45:49.784Z,6.18
2023-03-19T17:48:21.398Z,9.00
2023-03-19T17:50:52.760Z,14.48
2023-03-19T17:53:20.542Z,16.50
2023-03-19T17:55:48.319Z,18.13
2023-03-19T17:58:21.092Z,17.90
2023-03-19T18:00:50.272Z,20.63
2023-03-19T18:03:21.198Z,19.05
2023-03-19T18:05:51.212Z,16.83
2023-03-19T18:08:22.316Z,15.27
2023-03-19T18:10:53.667Z,13.85
2023-03-19T18:13:22.722Z,11.20
2023-03-19T18:15:50.556Z,9.90
2023-03-19T18:18:21.421Z,8.90
2023-03-19T18:20:50.615Z,8.05
2023-03-19T18:23:19.062Z,8.18
2023-03-19T18:25:47.450Z,12.43
2023-03-19T18:28:15.586Z,19.33
2023-03-19T18:30:46.086Z,17.90
2023-03-19T18:33:16.575Z,14.73
2023-03-19T18:35:46.351Z,12.35
2023-03-19T18:38:17.415Z,10.70
2023-03-19T18:40:45.739Z,15.63
2023-03-19T18:43:15.973Z,12.87
2023-03-19T18:45:48.724Z,13.52
2023-03-19T18:48:22.054Z,15.32
2023-03-19T18:50:50.582Z,15.52
2023-03-19T18:53:18.908Z,18.73
2023-03-19T18:55:47.951Z,22.03
2023-03-19T18:58:22.557Z,20.85
2023-03-19T19:00:52.472Z,16.60
2023-03-19T19:03:28.608Z,15.50
2023-03-19T19:05:56.756Z,15.00
2023-03-19T19:08:26.880Z,15.07
2023-03-19T19:10:59.376Z,15.90
2023-03-19T19:13:31.303Z,16.77
2023-03-19T19:16:01.972Z,15.15
2023-03-19T19:18:33.437Z,14.30
2023-03-19T19:21:02.202Z,12.97
2023-03-19T19:23:30.378Z,12.48
2023-03-19T19:25:58.228Z,12.10
2023-03-19T19:28:30.498Z,11.90
2023-03-19T19:31:01.203Z,10.57
2023-03-19T19:33:31.679Z,9.70
2023-03-19T19:35:59.833Z,9.25
2023-03-19T19:38:27.711Z,8.65
2023-03-19T19:40:58.373Z,8.35
2023-03-19T19:43:30.199Z,8.98
2023-03-19T19:46:00.890Z,10.00
2023-03-19T19:48:30.526Z,9.13
2023-03-19T19:50:59.179Z,9.63
2023-03-19T19:53:29.647Z,8.85
2023-03-19T19:55:57.655Z,9.43
2023-03-19T19:58:28.421Z,12.50
2023-03-19T20:01:03.324Z,11.35
2023-03-19T20:03:35.072Z,11.77
2023-03-19T20:06:03.676Z,10.95
2023-03-19T20:08:32.804Z,11.48
2023-03-19T20:11:00.807Z,11.00
2023-03-19T20:13:30.225Z,8.75
2023-03-19T20:15:59.603Z,6.60
2023-03-19T20:18:30.949Z,8.75
2023-03-19T20:21:00.452Z,9.30
2023-03-19T20:23:30.590Z,9.23
2023-03-19T20:25:58.520Z,9.00
2023-03-19T20:28:30.526Z,9.68
2023-03-19T20:30:58.622Z,8.90
2023-03-19T20:33:27.325Z,8.38
2023-03-19T20:35:55.611Z,8.30
2023-03-19T20:38:27.304Z,6.65
2023-03-19T20:40:57.093Z,6.82
2023-03-19T20:43:29.164Z,7.43
2023-03-19T20:45:58.251Z,6.80
2023-03-19T20:48:27.307Z,8.00
2023-03-19T20:50:56.151Z,6.10
2023-03-19T20:53:25.217Z,5.78
2023-03-19T20:55:53.446Z,6.85
2023-03-19T20:58:25.556Z,6.78
2023-03-19T21:00:54.376Z,7.13
2023-03-19T21:03:23.564Z,5.75
2023-03-19T21:05:53.410Z,4.65
2023-03-19T21:08:32.544Z,4.30
2023-03-19T21:11:01.610Z,5.07
2023-03-19T21:13:29.591Z,5.03
2023-03-19T21:15:57.640Z,4.25
2023-03-19T21:18:25.467Z,4.60
2023-03-19T21:20:55.676Z,4.85
2023-03-19T21:23:28.463Z,5.07
2023-03-19T21:25:58.777Z,4.50
2023-03-19T21:28:30.142Z,5.05
2023-03-19T21:30:58.684Z,5.10
2023-03-19T21:33:28.310Z,5.22
2023-03-19T21:35:57.314Z,5.68
2023-03-19T21:38:25.816Z,8.97
2023-03-19T21:40:59.352Z,9.30
2023-03-19T21:43:33.887Z,8.98
2023-03-19T21:46:17.426Z,8.70
2023-03-19T21:48:50.865Z,9.30
2023-03-19T21:51:18.753Z,8.43
2023-03-19T21:53:47.737Z,8.63
2023-03-19T21:56:22.796Z,7.95
2023-03-19T21:58:52.931Z,8.10
2023-03-19T22:01:23.681Z,7.05
2023-03-19T22:03:52.260Z,7.93
2023-03-19T22:06:22.214Z,7.68
2023-03-19T22:08:53.808Z,6.72
2023-03-19T22:11:26.961Z,6.45
2023-03-19T22:13:55.637Z,6.38
2023-03-19T22:16:25.627Z,5.93
2023-03-19T22:18:54.477Z,5.88
2023-03-19T22:21:24.000Z,5.30
2023-03-19T22:23:52.613Z,6.60
2023-03-19T22:26:39.543Z,9.68
2023-03-19T22:29:12.167Z,9.50
2023-03-19T22:31:40.153Z,9.93
2023-03-19T22:34:16.906Z,9.20
2023-03-19T22:36:45.702Z,8.75
2023-03-19T22:39:13.699Z,8.40
2023-03-19T22:41:46.247Z,8.67
2023-03-19T22:44:19.484Z,7.97
2023-03-19T22:46:47.853Z,7.10
2023-03-19T22:49:18.458Z,7.40
2023-03-19T22:51:47.365Z,6.55
2023-03-19T22:54:15.988Z,7.60
2023-03-19T22:56:45.402Z,7.95
2023-03-19T22:59:14.163Z,7.45
2023-03-19T23:01:44.384Z,6.22
2023-03-19T23:04:19.821Z,4.53
2023-03-19T23:06:47.720Z,3.70
2023-03-19T23:09:17.808Z,2.60
2023-03-19T23:11:48.228Z,3.03
2023-03-19T23:14:28.430Z,3.83
2023-03-19T23:17:02.264Z,3.50
2023-03-19T23:19:32.242Z,2.87
2023-03-19T23:22:02.762Z,2.35
2023-03-19T23:24:31.530Z,2.58
2023-03-19T23:27:02.365Z,2.22
2023-03-19T23:29:33.383Z,2.38
2023-03-19T23:32:01.718Z,2.50
2023-03-19T23:34:29.969Z,3.00
2023-03-19T23:36:58.196Z,4.00
2023-03-19T23:39:26.321Z,5.10
2023-03-19T23:41:57.909Z,5.13
2023-03-19T23:44:29.334Z,5.93
2023-03-19T23:47:03.046Z,6.00
2023-03-19T23:49:34.010Z,5.50
2023-03-19T23:52:04.546Z,4.57
2023-03-19T23:54:34.522Z,5.10
2023-03-19T23:57:05.210Z,5.70
2023-03-19T23:59:36.815Z,5.75
